Time;durP1;ratioP1;P1;durP2;ratioP2;P2;SDS_P1;SDS_P2;PMS_P1;PMS_P2;Temp;Humidity;BMP_temperature;BMP_pressure;BME280_temperature;BME280_humidity;BME280_pressure;Samples;Min_cycle;Max_cycle;Signal;HPM_P1;HPM_P2
2023/08/17 00:01:01;;;;;;;9.40;8.50;;;19.00;99.90;;;;;;5091149;28;20460;-66
2023/08/17 00:03:31;;;;;;;10.87;9.87;;;18.90;99.90;;;;;;5090089;28;20518;-66
2023/08/17 00:05:59;;;;;;;10.70;9.70;;;19.00;99.90;;;;;;5090732;28;20857;-66
2023/08/17 00:08:27;;;;;;;13.47;11.03;;;19.00;99.90;;;;;;5090906;28;20446;-66
2023/08/17 00:10:55;;;;;;;12.20;11.00;;;19.00;99.90;;;;;;5091430;28;21069;-65
2023/08/17 00:13:23;;;;;;;12.67;11.27;;;19.10;99.90;;;;;;5089795;28;20600;-66
2023/08/17 00:15:51;;;;;;;11.57;10.47;;;19.10;99.90;;;;;;5091035;28;20468;-66
2023/08/17 00:18:19;;;;;;;11.73;10.27;;;19.10;99.90;;;;;;5091091;28;20442;-66
2023/08/17 00:20:48;;;;;;;11.03;9.93;;;19.10;99.90;;;;;;5090795;28;20465;-66
2023/08/17 00:23:16;;;;;;;11.20;10.20;;;19.20;99.90;;;;;;5089786;28;20542;-65
2023/08/17 00:25:44;;;;;;;13.03;11.77;;;19.10;99.90;;;;;;5090849;28;20468;-66
2023/08/17 00:28:12;;;;;;;11.83;10.07;;;19.20;99.90;;;;;;5090729;28;20532;-66
2023/08/17 00:30:40;;;;;;;10.50;9.40;;;19.30;99.90;;;;;;5090762;28;20474;-66
2023/08/17 00:33:08;;;;;;;11.00;10.00;;;19.40;99.90;;;;;;5089764;28;20442;-66
2023/08/17 00:35:36;;;;;;;11.97;10.77;;;19.40;99.90;;;;;;5090504;28;20462;-66
2023/08/17 00:38:05;;;;;;;13.03;11.90;;;19.40;99.90;;;;;;5090156;28;20486;-66
2023/08/17 00:40:33;;;;;;;13.40;12.10;;;19.50;99.90;;;;;;5089561;28;20927;-66
2023/08/17 00:43:01;;;;;;;14.70;13.30;;;19.60;99.90;;;;;;5089262;28;20450;-66
2023/08/17 00:45:30;;;;;;;17.40;15.50;;;19.60;99.90;;;;;;5090490;28;20501;-66
2023/08/17 00:47:59;;;;;;;16.80;15.30;;;19.50;99.90;;;;;;5090422;28;20924;-66
2023/08/17 00:50:29;;;;;;;15.03;13.70;;;19.60;99.90;;;;;;5090365;28;20456;-66
2023/08/17 00:52:58;;;;;;;12.83;11.63;;;19.60;99.90;;;;;;5088928;28;20470;-67
2023/08/17 00:55:28;;;;;;;16.53;14.83;;;19.60;99.90;;;;;;5090461;28;20466;-66
2023/08/17 00:57:57;;;;;;;14.17;12.97;;;19.60;99.90;;;;;;5090431;28;20434;-67
2023/08/17 01:00:26;;;;;;;19.47;15.33;;;19.70;99.90;;;;;;5090158;28;20442;-67
2023/08/17 01:02:55;;;;;;;15.10;13.50;;;19.70;99.90;;;;;;5088954;28;20542;-66
2023/08/17 01:05:24;;;;;;;13.63;12.23;;;19.70;99.90;;;;;;5090038;28;20523;-67
2023/08/17 01:07:52;;;;;;;13.63;12.37;;;19.80;99.90;;;;;;5090133;28;20438;-66
2023/08/17 01:10:20;;;;;;;14.87;12.53;;;19.90;99.90;;;;;;5089761;28;20872;-65
2023/08/17 01:13:01;;;;;;;17.20;14.50;;;19.90;99.90;;;;;;5089094;28;20483;-66
2023/08/17 01:15:35;;;;;;;16.77;14.00;;;19.80;99.90;;;;;;5090023;28;20523;-66
2023/08/17 01:18:11;;;;;;;18.40;14.30;;;19.90;99.90;;;;;;5090059;28;20441;-66
2023/08/17 01:20:40;;;;;;;11.87;10.67;;;19.90;99.90;;;;;;5090115;28;20445;-66
2023/08/17 01:23:10;;;;;;;11.33;10.27;;;20.00;99.90;;;;;;5088996;28;20483;-65
2023/08/17 01:25:37;;;;;;;12.00;10.90;;;20.10;99.90;;;;;;5089874;28;20987;-65
2023/08/17 01:28:06;;;;;;;13.03;11.80;;;20.00;99.90;;;;;;5090087;28;20541;-66
2023/08/17 01:30:40;;;;;;;16.67;13.60;;;19.90;99.90;;;;;;5090075;28;20438;-66
2023/08/17 01:33:09;;;;;;;13.93;12.50;;;19.90;99.90;;;;;;5089105;28;20438;-66
2023/08/17 01:35:43;;;;;;;15.10;13.70;;;19.90;99.90;;;;;;5090190;28;20527;-66
2023/08/17 01:38:17;;;;;;;14.20;12.80;;;19.90;99.90;;;;;;5090103;28;20430;-66
2023/08/17 01:40:46;;;;;;;13.60;12.37;;;19.90;99.90;;;;;;5089950;28;20446;-66
2023/08/17 01:43:15;;;;;;;14.17;12.80;;;19.90;99.90;;;;;;5088215;28;20452;-66
2023/08/17 01:45:44;;;;;;;15.37;13.97;;;20.00;99.90;;;;;;5090110;28;20465;-66
2023/08/17 01:48:12;;;;;;;14.37;12.87;;;20.10;99.90;;;;;;5089856;28;20447;-66
2023/08/17 01:50:40;;;;;;;15.77;14.37;;;20.10;99.90;;;;;;5090255;28;20519;-66
2023/08/17 01:53:08;;;;;;;15.50;14.00;;;20.10;99.90;;;;;;5092612;28;20430;-66
2023/08/17 01:55:37;;;;;;;14.73;13.43;;;20.10;99.90;;;;;;5093153;28;20458;-67
2023/08/17 01:58:05;;;;;;;14.63;13.23;;;20.00;99.90;;;;;;5093895;28;20438;-67
2023/08/17 02:00:33;;;;;;;13.93;12.50;;;20.10;99.90;;;;;;5093732;28;20495;-65
2023/08/17 02:03:01;;;;;;;15.20;13.40;;;20.10;99.90;;;;;;5091466;28;20959;-65
2023/08/17 02:05:29;;;;;;;14.23;12.83;;;20.00;99.90;;;;;;5093308;28;20472;-66
2023/08/17 02:07:57;;;;;;;14.53;13.13;;;20.10;99.90;;;;;;5093430;28;20446;-66
2023/08/17 02:10:25;;;;;;;14.63;13.33;;;20.10;99.90;;;;;;5093342;28;21016;-66
2023/08/17 02:12:54;;;;;;;15.57;14.10;;;20.00;99.90;;;;;;5092094;28;20531;-66
2023/08/17 02:15:32;;;;;;;16.73;15.23;;;19.90;99.90;;;;;;5093333;28;20983;-66
2023/08/17 02:18:02;;;;;;;17.33;14.47;;;20.00;99.90;;;;;;5093313;28;20438;-66
2023/08/17 02:20:29;;;;;;;16.40;14.80;;;20.00;99.90;;;;;;5093032;28;20445;-66
2023/08/17 02:22:57;;;;;;;17.87;16.17;;;20.00;99.90;;;;;;5092410;28;20433;-65
2023/08/17 02:25:26;;;;;;;16.10;14.60;;;20.00;99.90;;;;;;5093047;28;20461;-66
2023/08/17 02:27:55;;;;;;;15.33;13.83;;;20.00;99.90;;;;;;5093212;28;20868;-66
2023/08/17 02:30:23;;;;;;;16.30;14.60;;;20.00;99.90;;;;;;5093073;28;20446;-65
2023/08/17 02:32:51;;;;;;;15.23;13.73;;;20.10;99.90;;;;;;5091715;28;20480;-64
2023/08/17 02:35:19;;;;;;;15.23;13.73;;;20.10;99.90;;;;;;5092740;28;20470;-65
2023/08/17 02:37:47;;;;;;;14.70;13.40;;;20.00;99.90;;;;;;5092939;28;20450;-64
2023/08/17 02:40:15;;;;;;;14.97;13.57;;;20.00;99.90;;;;;;5092973;28;20442;-66
2023/08/17 02:42:43;;;;;;;13.50;12.10;;;20.10;99.90;;;;;;5092005;28;20438;-66
2023/08/17 02:45:12;;;;;;;14.93;13.40;;;20.10;99.90;;;;;;5092867;28;20980;-66
2023/08/17 02:47:40;;;;;;;13.03;11.93;;;20.10;99.90;;;;;;5092418;28;20488;-66
2023/08/17 02:50:09;;;;;;;14.40;12.90;;;20.10;99.90;;;;;;5092939;28;20474;-66
2023/08/17 02:52:37;;;;;;;13.90;12.50;;;20.20;99.90;;;;;;5091714;28;20536;-66
2023/08/17 02:55:06;;;;;;;14.53;12.33;;;20.20;99.90;;;;;;5091883;28;20999;-66
2023/08/17 02:57:34;;;;;;;13.87;12.63;;;20.10;99.90;;;;;;5092577;28;20442;-66
2023/08/17 03:00:02;;;;;;;15.07;13.13;;;20.10;99.90;;;;;;5092590;28;20997;-65
2023/08/17 03:02:31;;;;;;;15.60;14.10;;;20.20;99.90;;;;;;5090477;28;20812;-66
2023/08/17 03:04:59;;;;;;;17.07;14.40;;;20.20;99.90;;;;;;5092207;28;20466;-66
2023/08/17 03:07:27;;;;;;;13.50;12.30;;;20.10;99.90;;;;;;5092451;28;20442;-65
2023/08/17 03:09:55;;;;;;;15.73;14.10;;;20.20;99.90;;;;;;5091998;28;20466;-66
2023/08/17 03:12:23;;;;;;;14.63;12.40;;;20.20;99.90;;;;;;5091458;28;21000;-65
2023/08/17 03:14:51;;;;;;;17.33;14.17;;;20.00;99.90;;;;;;5092207;28;20461;-64
2023/08/17 03:17:19;;;;;;;16.27;14.57;;;20.00;99.90;;;;;;5092434;28;21001;-66
2023/08/17 03:19:48;;;;;;;15.80;13.40;;;20.00;99.90;;;;;;5092613;28;20470;-66
2023/08/17 03:22:16;;;;;;;15.20;13.70;;;20.00;99.90;;;;;;5092041;28;20883;-66
2023/08/17 03:24:44;;;;;;;14.20;12.80;;;20.10;99.90;;;;;;5091670;28;20884;-66
2023/08/17 03:27:12;;;;;;;14.90;13.30;;;20.00;99.90;;;;;;5091709;28;20507;-66
2023/08/17 03:29:40;;;;;;;14.30;12.80;;;20.00;99.90;;;;;;5092222;28;20900;-65
2023/08/17 03:32:08;;;;;;;15.33;13.70;;;20.10;99.90;;;;;;5091673;28;20469;-66
2023/08/17 03:34:36;;;;;;;14.07;12.73;;;20.10;99.90;;;;;;5091050;28;20486;-66
2023/08/17 03:37:06;;;;;;;13.30;11.90;;;20.10;99.90;;;;;;5091901;28;20439;-66
2023/08/17 03:39:34;;;;;;;16.57;12.77;;;20.10;99.90;;;;;;5091670;28;21005;-66
2023/08/17 03:42:02;;;;;;;15.40;13.47;;;20.20;99.90;;;;;;5091631;28;20466;-65
2023/08/17 03:44:30;;;;;;;15.43;13.60;;;20.20;99.90;;;;;;5090635;28;20446;-66
2023/08/17 03:46:58;;;;;;;16.77;13.90;;;20.20;99.90;;;;;;5091622;28;20485;-66
2023/08/17 03:49:26;;;;;;;15.43;14.00;;;20.20;99.90;;;;;;5091486;28;21147;-67
2023/08/17 03:51:54;;;;;;;15.03;13.60;;;20.20;99.90;;;;;;5091155;28;20454;-66
2023/08/17 03:54:24;;;;;;;15.30;13.80;;;20.20;99.90;;;;;;5090198;28;20445;-66
2023/08/17 03:56:52;;;;;;;15.13;13.70;;;20.10;99.90;;;;;;5091501;28;20497;-64
2023/08/17 03:59:20;;;;;;;15.07;13.67;;;20.10;99.90;;;;;;5091216;28;20545;-66
2023/08/17 04:01:47;;;;;;;14.57;13.07;;;20.10;99.90;;;;;;5091266;28;20473;-66
2023/08/17 04:04:15;;;;;;;14.33;12.90;;;20.20;99.90;;;;;;5089731;28;20442;-66
2023/08/17 04:06:43;;;;;;;16.33;14.13;;;20.20;99.90;;;;;;5091041;28;20852;-66
2023/08/17 04:09:12;;;;;;;15.63;14.10;;;20.30;99.90;;;;;;5091084;28;20804;-67
2023/08/17 04:11:41;;;;;;;14.50;13.10;;;20.20;99.90;;;;;;5091291;28;20450;-66
2023/08/17 04:14:09;;;;;;;14.90;13.40;;;20.30;99.90;;;;;;5089786;28;20897;-66
2023/08/17 04:16:37;;;;;;;16.03;14.47;;;20.30;99.90;;;;;;5090952;28;21037;-66
2023/08/17 04:19:06;;;;;;;16.60;14.90;;;20.30;99.90;;;;;;5091017;28;20522;-66
2023/08/17 04:21:34;;;;;;;16.17;14.60;;;20.20;99.90;;;;;;5090564;28;20450;-66
2023/08/17 04:24:02;;;;;;;16.83;15.23;;;20.30;99.90;;;;;;5090067;28;20442;-66
2023/08/17 04:26:30;;;;;;;17.03;14.20;;;20.40;99.90;;;;;;5090969;28;20500;-66
2023/08/17 04:29:00;;;;;;;17.70;15.90;;;20.30;99.90;;;;;;5090797;28;20537;-66
2023/08/17 04:31:28;;;;;;;17.40;15.60;;;20.30;99.90;;;;;;5090762;28;20438;-66
2023/08/17 04:33:56;;;;;;;17.60;15.80;;;20.30;99.90;;;;;;5089480;28;20475;-66
2023/08/17 04:36:23;;;;;;;18.07;16.27;;;20.30;99.90;;;;;;5090764;28;20976;-66
2023/08/17 04:38:51;;;;;;;18.97;15.97;;;20.30;99.90;;;;;;5090905;28;20521;-65
2023/08/17 04:41:19;;;;;;;18.30;16.40;;;20.30;99.90;;;;;;5091854;28;20520;-67
2023/08/17 04:43:49;;;;;;;19.80;16.20;;;20.30;99.90;;;;;;5089718;28;20506;-66
2023/08/17 04:46:18;;;;;;;14.70;13.30;;;20.40;99.90;;;;;;5090389;28;20462;-66
2023/08/17 04:48:46;;;;;;;17.57;15.30;;;20.50;99.90;;;;;;5090598;28;20872;-66
2023/08/17 04:51:14;;;;;;;19.10;16.70;;;20.60;99.90;;;;;;5090446;28;20462;-67
2023/08/17 04:53:43;;;;;;;19.97;15.10;;;20.60;99.90;;;;;;5089115;28;20892;-66
2023/08/17 04:56:11;;;;;;;19.00;15.67;;;20.60;99.90;;;;;;5090370;28;20520;-66
2023/08/17 04:58:39;;;;;;;21.33;17.23;;;20.60;99.90;;;;;;5090806;28;20499;-66
2023/08/17 05:01:07;;;;;;;19.37;17.33;;;20.50;99.90;;;;;;5090225;28;20493;-66
2023/08/17 05:03:37;;;;;;;20.73;17.67;;;20.50;99.90;;;;;;5089429;28;20442;-66
2023/08/17 05:06:05;;;;;;;21.30;17.37;;;20.60;99.90;;;;;;5090460;28;20467;-66
2023/08/17 05:08:33;;;;;;;24.10;19.40;;;20.60;99.90;;;;;;5090322;28;20469;-66
2023/08/17 05:11:01;;;;;;;21.27;19.00;;;20.80;99.90;;;;;;5090199;28;20504;-66
2023/08/17 05:13:29;;;;;;;23.30;19.07;;;20.70;99.90;;;;;;5089002;28;20488;-66
2023/08/17 05:15:57;;;;;;;20.43;17.43;;;20.60;99.90;;;;;;5090582;28;20820;-66
2023/08/17 05:18:25;;;;;;;20.67;18.00;;;20.60;99.90;;;;;;5090536;28;20524;-67
2023/08/17 05:20:54;;;;;;;18.60;16.33;;;20.70;99.90;;;;;;5090299;28;21048;-67
2023/08/17 05:23:22;;;;;;;17.47;15.60;;;20.80;99.90;;;;;;5088952;28;20448;-66
2023/08/17 05:25:50;;;;;;;17.43;15.13;;;20.80;99.90;;;;;;5089342;28;20488;-66
2023/08/17 05:28:18;;;;;;;17.83;13.40;;;20.80;99.90;;;;;;5089717;28;20453;-65
2023/08/17 05:30:47;;;;;;;15.60;12.40;;;20.80;99.90;;;;;;5089878;28;20944;-66
2023/08/17 05:33:16;;;;;;;13.30;12.07;;;20.80;99.90;;;;;;5088716;28;20470;-66
2023/08/17 05:35:43;;;;;;;14.17;12.67;;;20.80;99.90;;;;;;5089886;28;20531;-66
2023/08/17 05:38:13;;;;;;;14.27;12.73;;;20.90;99.90;;;;;;5089961;28;20442;-66
2023/08/17 05:40:41;;;;;;;13.90;12.40;;;21.00;99.90;;;;;;5089806;28;21074;-66
2023/08/17 05:43:09;;;;;;;12.23;11.03;;;21.20;99.90;;;;;;5088110;28;20450;-66
2023/08/17 05:45:37;;;;;;;14.23;12.93;;;21.40;99.90;;;;;;5089660;28;20497;-66
2023/08/17 05:48:06;;;;;;;14.00;12.50;;;21.50;99.90;;;;;;5089752;28;20482;-67
2023/08/17 05:50:34;;;;;;;13.97;12.47;;;21.50;99.90;;;;;;5089597;28;20450;-66
2023/08/17 05:53:02;;;;;;;13.27;11.93;;;21.50;99.90;;;;;;5088303;28;20958;-66
2023/08/17 05:55:32;;;;;;;13.77;12.57;;;21.60;99.90;;;;;;5089772;28;20464;-66
2023/08/17 05:58:00;;;;;;;14.87;13.20;;;21.70;99.90;;;;;;5089698;28;20447;-67
2023/08/17 06:00:28;;;;;;;13.33;12.03;;;21.80;99.90;;;;;;5089685;28;20861;-67
2023/08/17 06:03:00;;;;;;;14.57;12.77;;;21.80;99.90;;;;;;5088448;28;20442;-67
2023/08/17 06:05:30;;;;;;;13.20;11.97;;;21.80;99.90;;;;;;5086353;28;20466;-66
2023/08/17 06:07:58;;;;;;;13.83;12.33;;;22.00;99.90;;;;;;5088686;28;20445;-67
2023/08/17 06:10:26;;;;;;;15.03;13.43;;;22.20;99.90;;;;;;5089500;28;20481;-67
2023/08/17 06:12:56;;;;;;;14.33;12.97;;;22.10;99.90;;;;;;5088677;28;20495;-66
2023/08/17 06:15:24;;;;;;;14.47;13.00;;;22.00;99.90;;;;;;5089613;28;20495;-66
2023/08/17 06:17:52;;;;;;;16.87;14.80;;;22.00;99.90;;;;;;5089493;28;20446;-66
2023/08/17 06:20:21;;;;;;;16.17;14.43;;;22.00;99.90;;;;;;5089165;28;20443;-66
2023/08/17 06:22:49;;;;;;;14.70;13.20;;;22.10;99.90;;;;;;5088163;28;20578;-66
2023/08/17 06:25:18;;;;;;;14.80;13.33;;;22.10;99.90;;;;;;5089165;28;20815;-67
2023/08/17 06:27:45;;;;;;;14.00;12.70;;;22.20;99.90;;;;;;5089131;28;20447;-67
2023/08/17 06:30:15;;;;;;;14.30;12.90;;;22.30;99.90;;;;;;5089237;28;20941;-66
2023/08/17 06:32:43;;;;;;;15.03;13.63;;;22.40;99.90;;;;;;5088055;28;20515;-66
2023/08/17 06:35:11;;;;;;;14.67;13.27;;;22.60;99.90;;;;;;5089006;28;20493;-66
2023/08/17 06:37:39;;;;;;;15.17;13.50;;;22.80;99.90;;;;;;5091361;28;20474;-66
2023/08/17 06:40:09;;;;;;;16.60;15.00;;;22.80;99.90;;;;;;5093085;28;20446;-66
2023/08/17 06:42:37;;;;;;;15.70;13.73;;;22.80;99.90;;;;;;5091812;28;20450;-66
2023/08/17 06:45:07;;;;;;;14.20;12.70;;;22.80;99.90;;;;;;5092800;28;20466;-66
2023/08/17 06:47:36;;;;;;;16.17;14.50;;;22.80;99.90;;;;;;5092629;28;20443;-66
2023/08/17 06:50:05;;;;;;;16.73;15.03;;;22.90;99.90;;;;;;5092974;28;20442;-66
2023/08/17 06:52:34;;;;;;;13.30;12.00;;;23.00;99.90;;;;;;5091568;28;20438;-67
2023/08/17 06:55:02;;;;;;;14.30;12.80;;;23.00;99.90;;;;;;5092373;28;20535;-66
2023/08/17 06:57:30;;;;;;;15.67;12.83;;;23.20;99.90;;;;;;5092733;28;20474;-67
2023/08/17 06:59:58;;;;;;;14.50;13.10;;;23.30;99.90;;;;;;5092705;28;21009;-66
2023/08/17 07:02:29;;;;;;;15.00;13.60;;;23.50;99.90;;;;;;5091888;28;20876;-67
2023/08/17 07:05:19;;;;;;;16.10;12.90;;;23.50;99.90;;;;;;5092569;28;20469;-66
2023/08/17 07:07:47;;;;;;;14.80;13.17;;;23.60;99.90;;;;;;5092810;28;20858;-67
2023/08/17 07:10:15;;;;;;;14.87;13.67;;;23.80;99.90;;;;;;5092301;28;20454;-66
2023/08/17 07:12:43;;;;;;;16.40;14.70;;;23.80;99.90;;;;;;5091614;28;20451;-66
2023/08/17 07:15:12;;;;;;;15.90;14.07;;;23.80;99.90;;;;;;5092594;28;20546;-66
2023/08/17 07:17:40;;;;;;;15.50;14.10;;;23.90;99.90;;;;;;5092719;28;20812;-67
2023/08/17 07:20:09;;;;;;;17.83;16.10;;;24.00;99.90;;;;;;5092311;28;20518;-66
2023/08/17 07:22:41;;;;;;;16.00;14.50;;;24.40;99.90;;;;;;5008633;28;20868;-66
2023/08/17 07:25:09;;;;;;;15.90;14.50;;;24.40;99.90;;;;;;5009746;28;20462;-66
2023/08/17 07:27:37;;;;;;;16.93;15.33;;;24.50;99.90;;;;;;5009167;28;20456;-66
2023/08/17 07:30:06;;;;;;;13.43;12.23;;;24.70;99.90;;;;;;5009612;28;20537;-66
2023/08/17 07:32:34;;;;;;;14.40;12.90;;;25.00;99.90;;;;;;5008535;28;20450;-67
2023/08/17 07:35:03;;;;;;;14.57;13.27;;;25.10;99.90;;;;;;5009305;28;20490;-67
2023/08/17 07:37:33;;;;;;;15.13;13.90;;;25.20;99.90;;;;;;5009354;28;20443;-67
2023/08/17 07:40:04;;;;;;;14.17;12.90;;;25.20;99.90;;;;;;5017605;28;20442;-67
2023/08/17 07:42:32;;;;;;;13.00;11.80;;;24.90;99.90;;;;;;5072525;28;20469;-67
2023/08/17 07:45:01;;;;;;;17.07;15.60;;;24.60;99.90;;;;;;5091820;28;20454;-67
2023/08/17 07:47:29;;;;;;;14.03;12.60;;;24.60;99.90;;;;;;5091871;28;20438;-67
2023/08/17 07:49:58;;;;;;;14.97;13.43;;;24.70;99.90;;;;;;5091197;28;20450;-67
2023/08/17 07:52:26;;;;;;;13.13;11.93;;;24.80;99.90;;;;;;5091854;28;20438;-66
2023/08/17 07:54:55;;;;;;;13.00;11.80;;;25.00;99.90;;;;;;5090482;28;20547;-67
2023/08/17 07:57:24;;;;;;;11.50;10.50;;;25.10;99.90;;;;;;5091639;28;20446;-68
2023/08/17 07:59:53;;;;;;;12.50;11.40;;;25.20;99.90;;;;;;5091509;28;20535;-67
2023/08/17 08:02:21;;;;;;;13.65;12.45;;;25.10;99.90;;;;;;5089818;28;20424;-66
2023/08/17 08:04:49;;;;;;;12.70;11.70;;;24.90;99.90;;;;;;5090741;28;20285;-66
2023/08/17 08:07:17;;;;;;;16.87;15.37;;;24.80;99.90;;;;;;5091604;28;20442;-67
2023/08/17 08:09:45;;;;;;;15.10;13.60;;;24.70;99.90;;;;;;5091023;28;21170;-67
2023/08/17 08:12:13;;;;;;;15.47;14.13;;;24.60;99.90;;;;;;5090901;28;20465;-67
2023/08/17 08:14:43;;;;;;;16.00;14.40;;;24.50;99.90;;;;;;5090410;28;20494;-67
2023/08/17 08:17:10;;;;;;;14.13;12.93;;;24.50;99.90;;;;;;5091074;28;20442;-67
2023/08/17 08:19:38;;;;;;;12.90;11.80;;;24.40;99.90;;;;;;5091185;28;20449;-66
2023/08/17 08:22:06;;;;;;;13.20;11.90;;;24.40;99.90;;;;;;5090240;28;20952;-67
2023/08/17 08:24:34;;;;;;;12.57;11.50;;;24.50;99.90;;;;;;5089993;28;20863;-68
2023/08/17 08:27:06;;;;;;;13.60;12.17;;;24.70;99.90;;;;;;5090934;28;20491;-65
2023/08/17 08:29:35;;;;;;;15.20;13.87;;;25.00;99.90;;;;;;5090820;28;20953;-68
2023/08/17 08:32:04;;;;;;;17.30;15.80;;;25.30;99.90;;;;;;5090763;28;20446;-67
2023/08/17 08:34:32;;;;;;;15.63;14.20;;;25.30;99.90;;;;;;5090370;28;20446;-68
2023/08/17 08:37:00;;;;;;;17.17;15.37;;;24.90;99.90;;;;;;5090799;28;20880;-66
2023/08/17 08:39:29;;;;;;;15.67;14.27;;;24.70;99.90;;;;;;5091105;28;20449;-67
2023/08/17 08:41:57;;;;;;;19.30;17.60;;;24.60;99.90;;;;;;5090747;28;20462;-68
2023/08/17 08:44:25;;;;;;;19.00;17.30;;;24.60;99.90;;;;;;5089762;28;21057;-64
2023/08/17 08:46:57;;;;;;;19.70;17.40;;;24.40;99.90;;;;;;5090677;28;20462;-67
2023/08/17 08:49:26;;;;;;;17.93;16.27;;;24.50;99.90;;;;;;5090675;28;20481;-68
2023/08/17 08:51:59;;;;;;;16.67;15.07;;;24.50;99.90;;;;;;5090736;28;20816;-66
2023/08/17 08:54:28;;;;;;;17.93;16.30;;;24.50;99.90;;;;;;5089359;28;20954;-67
2023/08/17 08:57:02;;;;;;;16.60;14.90;;;24.40;99.90;;;;;;5090603;28;20541;-67
2023/08/17 08:59:30;;;;;;;17.37;15.67;;;24.30;99.90;;;;;;5090854;28;20534;-66
2023/08/17 09:01:59;;;;;;;17.47;15.87;;;24.40;99.90;;;;;;5089858;28;20499;-66
2023/08/17 09:04:30;;;;;;;18.23;16.63;;;24.50;99.90;;;;;;5089530;28;20487;-68
2023/08/17 09:06:58;;;;;;;17.70;16.10;;;24.60;99.90;;;;;;5090287;28;20533;-67
2023/08/17 09:09:26;;;;;;;15.73;14.23;;;24.80;99.90;;;;;;5090326;28;20450;-67
2023/08/17 09:11:57;;;;;;;16.97;15.27;;;24.90;99.90;;;;;;5090564;28;20524;-68
2023/08/17 09:14:25;;;;;;;16.60;15.00;;;25.00;99.90;;;;;;5089520;28;20443;-68
2023/08/17 09:16:53;;;;;;;16.63;14.93;;;25.20;99.90;;;;;;5090236;28;20551;-67
2023/08/17 09:19:21;;;;;;;15.97;14.37;;;25.30;99.90;;;;;;5090158;28;20435;-65
2023/08/17 09:21:50;;;;;;;17.47;15.83;;;25.40;99.90;;;;;;5090506;28;20434;-68
2023/08/17 09:24:18;;;;;;;16.60;15.00;;;25.50;99.90;;;;;;5090003;28;20465;-67
2023/08/17 09:26:46;;;;;;;15.90;14.57;;;25.50;99.90;;;;;;5090332;28;20511;-67
2023/08/17 09:29:19;;;;;;;16.07;14.47;;;25.80;99.90;;;;;;5090581;28;20820;-67
2023/08/17 09:31:47;;;;;;;16.77;15.33;;;25.80;99.90;;;;;;5090292;28;20456;-67
2023/08/17 09:34:15;;;;;;;17.40;15.80;;;25.90;99.90;;;;;;5088737;28;20487;-67
2023/08/17 09:36:46;;;;;;;17.33;15.60;;;26.10;99.90;;;;;;5089598;28;20517;-67
2023/08/17 09:39:16;;;;;;;16.40;14.90;;;26.20;99.90;;;;;;5089991;28;20516;-67
2023/08/17 09:41:45;;;;;;;15.93;14.43;;;26.70;99.90;;;;;;5090078;28;20529;-66
2023/08/17 09:44:13;;;;;;;15.37;14.00;;;27.10;99.90;;;;;;5088726;28;20449;-66
2023/08/17 09:46:45;;;;;;;16.60;14.93;;;27.30;99.90;;;;;;5089540;28;20550;-67
2023/08/17 09:49:13;;;;;;;14.13;12.73;;;27.60;99.90;;;;;;5089970;28;20449;-66
2023/08/17 09:51:43;;;;;;;14.97;13.57;;;28.00;99.90;;;;;;5089410;28;20443;-67
2023/08/17 09:54:22;;;;;;;15.40;14.13;;;28.20;99.90;;;;;;5088065;28;20464;-66
2023/08/17 09:56:51;;;;;;;15.97;14.53;;;28.50;99.90;;;;;;5089373;28;20506;-67
2023/08/17 09:59:20;;;;;;;15.17;13.67;;;28.70;99.90;;;;;;5089367;28;20932;-66
2023/08/17 10:01:50;;;;;;;13.70;12.40;;;28.80;99.90;;;;;;5089398;28;20526;-67
2023/08/17 10:04:23;;;;;;;15.50;14.20;;;28.80;99.90;;;;;;5088215;28;20478;-66
2023/08/17 10:06:57;;;;;;;14.53;13.33;;;28.80;99.90;;;;;;5089446;28;20541;-66
2023/08/17 10:09:32;;;;;;;12.13;11.13;;;28.40;99.90;;;;;;5089414;28;20450;-67
2023/08/17 10:12:07;;;;;;;13.80;12.67;;;28.50;99.90;;;;;;5090852;28;20437;-67
2023/08/17 10:14:47;;;;;;;16.13;14.63;;;28.80;99.90;;;;;;5092533;28;20434;-67
2023/08/17 10:17:20;;;;;;;13.40;12.17;;;28.70;99.90;;;;;;5093139;28;20602;-66
2023/08/17 10:19:53;;;;;;;12.63;11.43;;;28.70;99.90;;;;;;5093115;28;20483;-67
2023/08/17 10:22:29;;;;;;;14.53;13.13;;;29.00;99.90;;;;;;5085005;28;20499;-67
2023/08/17 10:24:59;;;;;;;12.27;11.07;;;29.70;99.90;;;;;;5092938;28;21045;-67
2023/08/17 10:27:28;;;;;;;13.30;11.90;;;30.20;99.90;;;;;;5093356;28;20456;-67
2023/08/17 10:29:57;;;;;;;12.97;11.87;;;30.40;99.90;;;;;;5093391;28;20553;-68
2023/08/17 10:32:26;;;;;;;12.13;11.10;;;30.60;99.90;;;;;;5092056;28;20446;-66
2023/08/17 10:34:54;;;;;;;12.73;11.67;;;30.60;99.90;;;;;;5093186;28;20458;-67
2023/08/17 10:37:24;;;;;;;12.17;10.97;;;30.50;99.90;;;;;;5092626;28;20474;-67
2023/08/17 10:39:52;;;;;;;10.87;9.77;;;30.80;99.90;;;;;;5093020;28;20498;-68
2023/08/17 10:42:33;;;;;;;12.03;11.00;;;31.50;99.90;;;;;;5092470;28;20444;-67
2023/08/17 10:45:03;;;;;;;10.40;9.20;;;32.00;99.90;;;;;;5092568;28;20548;-68
2023/08/17 10:47:33;;;;;;;12.33;11.20;;;32.20;99.90;;;;;;5093267;28;20457;-67
2023/08/17 10:50:06;;;;;;;10.93;9.93;;;32.00;99.90;;;;;;5092946;28;21007;-67
2023/08/17 10:52:37;;;;;;;11.27;10.17;;;31.60;99.90;;;;;;5091898;28;20525;-67
2023/08/17 10:55:08;;;;;;;10.83;9.93;;;31.80;99.90;;;;;;5072588;28;20447;-67
2023/08/17 10:57:39;;;;;;;12.53;11.50;;;32.00;99.90;;;;;;5072414;28;20502;-66
2023/08/17 11:00:16;;;;;;;12.47;11.37;;;31.80;99.90;;;;;;5072874;28;20558;-66
2023/08/17 11:02:54;;;;;;;12.43;11.47;;;31.50;99.90;;;;;;5091439;28;21037;-66
2023/08/17 11:05:42;;;;;;;12.30;11.10;;;31.30;99.90;;;;;;5092671;28;20543;-67
2023/08/17 11:08:13;;;;;;;13.97;12.57;;;31.00;99.90;;;;;;5092720;28;20442;-66
2023/08/17 11:10:43;;;;;;;12.10;11.07;;;31.10;99.90;;;;;;5092252;28;20519;-66
2023/08/17 11:13:16;;;;;;;10.93;9.93;;;31.20;99.90;;;;;;5091752;28;20458;-67
2023/08/17 11:15:44;;;;;;;12.87;11.60;;;31.00;99.90;;;;;;5092286;28;20521;-68
2023/08/17 11:18:13;;;;;;;13.40;12.20;;;31.10;99.40;;;;;;5092275;28;20435;-66
2023/08/17 11:20:42;;;;;;;11.43;10.50;;;30.90;99.50;;;;;;5092217;28;20448;-66
2023/08/17 11:23:11;;;;;;;11.70;10.67;;;31.00;98.50;;;;;;5090315;28;20517;-66
2023/08/17 11:25:39;;;;;;;12.20;11.00;;;31.20;98.70;;;;;;5091916;28;20470;-66
2023/08/17 11:28:09;;;;;;;11.23;10.23;;;31.60;96.90;;;;;;5092145;28;20529;-66
2023/08/17 11:30:39;;;;;;;11.57;10.57;;;32.00;96.00;;;;;;5091997;28;20491;-67
2023/08/17 11:33:08;;;;;;;12.10;11.10;;;32.20;95.60;;;;;;5091046;28;20528;-66
2023/08/17 11:35:36;;;;;;;11.27;10.00;;;32.40;94.30;;;;;;5091694;28;20552;-67
2023/08/17 11:38:05;;;;;;;11.20;10.33;;;32.70;94.00;;;;;;5091833;28;20481;-67
2023/08/17 11:40:36;;;;;;;11.40;10.40;;;33.30;92.00;;;;;;5091777;28;20484;-67
2023/08/17 11:43:05;;;;;;;10.40;9.50;;;33.30;90.40;;;;;;5090239;28;20538;-66
2023/08/17 11:45:34;;;;;;;13.43;10.70;;;32.80;90.30;;;;;;5091761;28;20519;-67
2023/08/17 11:48:04;;;;;;;12.03;10.93;;;32.40;91.90;;;;;;5091774;28;20534;-66
2023/08/17 11:50:32;;;;;;;13.03;11.93;;;32.40;90.50;;;;;;5091457;28;20455;-66
2023/08/17 11:53:00;;;;;;;13.43;12.33;;;32.60;92.70;;;;;;5090287;28;20488;-66
2023/08/17 11:55:29;;;;;;;13.33;12.10;;;32.30;94.70;;;;;;5091416;28;20515;-66
2023/08/17 11:57:57;;;;;;;12.83;11.73;;;32.30;93.70;;;;;;5091307;28;20812;-67
2023/08/17 12:00:25;;;;;;;12.10;10.90;;;32.30;93.30;;;;;;5091387;28;20972;-67
2023/08/17 12:02:55;;;;;;;12.40;11.20;;;32.20;94.10;;;;;;5089903;28;20804;-66
2023/08/17 12:05:27;;;;;;;12.30;11.10;;;31.80;94.80;;;;;;5091309;28;21037;-66
2023/08/17 12:07:55;;;;;;;12.50;11.40;;;31.10;96.40;;;;;;5091473;28;20430;-66
2023/08/17 12:10:23;;;;;;;13.50;12.13;;;30.60;96.70;;;;;;5091026;28;20850;-66
2023/08/17 12:12:51;;;;;;;13.17;11.87;;;30.30;97.90;;;;;;5090004;28;20465;-67
2023/08/17 12:15:20;;;;;;;12.63;11.53;;;30.10;98.60;;;;;;5090817;28;20463;-66
2023/08/17 12:17:50;;;;;;;13.13;11.90;;;30.30;99.30;;;;;;5090859;28;20481;-65
2023/08/17 12:20:19;;;;;;;11.63;10.73;;;30.60;98.40;;;;;;5091252;28;20559;-66
2023/08/17 12:22:48;;;;;;;11.47;10.37;;;31.00;98.20;;;;;;5089663;28;20816;-67
2023/08/17 12:25:16;;;;;;;10.73;9.93;;;31.40;96.40;;;;;;5090998;28;20465;-66
2023/08/17 12:27:47;;;;;;;11.80;10.80;;;31.30;99.20;;;;;;5090982;28;20435;-66
2023/08/17 12:30:26;;;;;;;11.87;10.77;;;31.40;96.70;;;;;;5091010;28;20434;-66
2023/08/17 12:32:54;;;;;;;11.97;10.87;;;31.30;96.60;;;;;;5089422;28;20450;-66
2023/08/17 12:35:25;;;;;;;11.30;10.30;;;31.00;97.20;;;;;;5090421;28;20549;-66
2023/08/17 12:37:55;;;;;;;10.70;9.60;;;30.50;97.90;;;;;;5090671;28;20478;-66